Time,TemperatureF,DewpointF,PressureIn,WindDirection,WindDirectionDegrees,WindSpeedMPH,WindSpeedGustMPH,Humidity,HourlyPrecipIn,Conditions,Clouds,dailyrainin,SolarRadiationWatts/m^2,SoftwareType,DateUTC
2013-03-17 00:03:00,7.8,3.5,30.32,SE,126,10.0,15.0,82,0.00,,OVC070,0.00,0.00,VWS V14.00,2013-03-17 05:03:00,
2013-03-17 00:08:00,7.8,3.5,30.32,ESE,120,13.0,16.0,82,0.00,,OVC070,0.00,0.00,VWS V14.00,2013-03-17 05:08:00,
2013-03-17 00:13:00,7.8,3.7,30.32,ESE,117,12.0,17.0,83,0.00,,OVC070,0.00,0.00,VWS V14.00,2013-03-17 05:13:00,
2013-03-17 00:18:00,7.8,3.7,30.32,SE,127,10.0,17.0,83,0.00,,OVC070,0.00,0.00,VWS V14.00,2013-03-17 05:18:00,
2013-03-17 00:23:00,8.0,4.2,30.32,SE,131,10.0,17.0,84,0.00,,OVC070,0.00,0.00,VWS V14.00,2013-03-17 05:23:00,
2013-03-17 00:28:00,8.3,4.5,30.32,SE,128,10.0,17.0,84,0.00,,OVC070,0.00,0.00,VWS V14.00,2013-03-17 05:28:00,
2013-03-17 00:33:00,8.4,4.3,30.31,ESE,122,12.0,15.0,83,0.00,,OVC070,0.00,0.00,VWS V14.00,2013-03-17 05:33:00,
2013-03-17 00:38:00,8.4,4.3,30.31,ESE,122,16.0,17.0,83,0.00,,OVC070,0.00,0.00,VWS V14.00,2013-03-17 05:38:00,
2013-03-17 00:43:00,8.5,4.4,30.31,ESE,121,17.0,18.0,83,0.00,,OVC055,0.00,0.00,VWS V14.00,2013-03-17 05:43:00,
2013-03-17 00:48:00,8.6,4.5,30.30,SE,134,10.0,18.0,83,0.00,,OVC055,0.00,0.00,VWS V14.00,2013-03-17 05:48:00,
2013-03-17 00:53:00,8.8,4.7,30.30,SE,128,16.0,18.0,83,0.00,,OVC055,0.00,0.00,VWS V14.00,2013-03-17 05:53:00,
2013-03-17 00:58:00,9.0,4.9,30.30,SE,130,8.0,18.0,83,0.00,,OVC055,0.00,0.00,VWS V14.00,2013-03-17 05:58:00,
2013-03-17 01:03:00,9.0,4.6,30.30,ESE,121,11.0,16.0,82,0.00,,OVC055,0.00,0.00,VWS V14.00,2013-03-17 06:03:00,
2013-03-17 01:09:00,9.0,4.6,30.30,SE,128,12.0,18.0,82,0.00,,OVC055,0.00,0.00,VWS V14.00,2013-03-17 06:09:00,
2013-03-17 01:14:00,9.1,4.7,30.30,SE,138,12.0,18.0,82,0.00,,OVC055,0.00,0.00,VWS V14.00,2013-03-17 06:14:00,
2013-03-17 01:19:00,9.2,4.8,30.30,SE,139,12.0,18.0,82,0.00,,OVC055,0.00,0.00,VWS V14.00,2013-03-17 06:19:00,
2013-03-17 01:24:00,9.3,4.9,30.30,SE,133,15.0,18.0,82,0.00,,OVC055,0.00,0.00,VWS V14.00,2013-03-17 06:24:00,
2013-03-17 01:29:00,9.3,4.9,30.30,SE,146,12.0,12.0,82,0.00,,OVC055,0.00,0.00,VWS V14.00,2013-03-17 06:29:00,
2013-03-17 01:34:00,9.3,4.9,30.30,SE,144,12.0,16.0,82,0.00,,OVC055,0.00,0.00,VWS V14.00,2013-03-17 06:34:00,
2013-03-17 01:39:00,9.3,4.9,30.29,SE,132,15.0,16.0,82,0.00,,OVC055,0.00,0.00,VWS V14.00,2013-03-17 06:39:00,
2013-03-17 01:44:00,9.2,4.8,30.28,SE,130,13.0,17.0,82,0.00,,OVC065,0.00,0.00,VWS V14.00,2013-03-17 06:44:00,
2013-03-17 01:50:00,9.1,5.0,30.28,ESE,119,15.0,17.0,83,0.00,,OVC065,0.00,0.00,VWS V14.00,2013-03-17 06:50:00,
2013-03-17 01:55:00,9.0,5.2,30.27,SE,129,12.0,17.0,84,0.00,,OVC065,0.00,0.00,VWS V14.00,2013-03-17 06:55:00,
2013-03-17 02:00:00,9.0,5.2,30.27,SE,128,12.0,18.0,84,0.00,,OVC065,0.00,0.00,VWS V14.00,2013-03-17 07:00:00,
2013-03-17 02:05:00,8.9,5.1,30.26,SE,127,11.0,18.0,84,0.00,,OVC065,0.00,0.00,VWS V14.00,2013-03-17 07:05:00,
2013-03-17 02:10:00,9.0,5.2,30.26,SE,132,12.0,20.0,84,0.00,,OVC065,0.00,0.00,VWS V14.00,2013-03-17 07:10:00,
2013-03-17 02:15:00,9.1,5.3,30.25,SE,132,14.0,20.0,84,0.00,,OVC065,0.00,0.00,VWS V14.00,2013-03-17 07:15:00,
2013-03-17 02:20:00,9.0,5.2,30.24,SE,130,16.0,20.0,84,0.00,,OVC065,0.00,0.00,VWS V14.00,2013-03-17 07:20:00,
2013-03-17 02:25:00,9.0,5.4,30.24,SE,124,12.0,21.0,85,0.00,,OVC065,0.00,0.00,VWS V14.00,2013-03-17 07:25:00,
2013-03-17 02:30:00,9.1,5.5,30.24,SE,132,18.0,21.0,85,0.00,,OVC065,0.00,0.00,VWS V14.00,2013-03-17 07:30:00,
2013-03-17 02:35:00,9.1,5.5,30.24,SE,125,20.0,21.0,85,0.00,,OVC065,0.00,0.00,VWS V14.00,2013-03-17 07:35:00,
2013-03-17 02:40:00,9.1,5.8,30.24,SE,128,11.0,23.0,86,0.00,,OVC065,0.00,0.00,VWS V14.00,2013-03-17 07:40:00,
2013-03-17 02:45:00,9.1,5.8,30.23,SE,126,14.0,23.0,86,0.00,,,0.00,0.00,VWS V14.00,2013-03-17 07:45:00,
2013-03-17 02:51:00,9.1,5.8,30.23,SE,128,13.0,23.0,86,0.00,,,0.00,0.00,VWS V14.00,2013-03-17 07:51:00,
2013-03-17 02:56:00,9.0,5.7,30.23,SE,132,15.0,23.0,86,0.00,,,0.00,0.00,VWS V14.00,2013-03-17 07:56:00,
2013-03-17 03:02:00,9.0,5.7,30.23,SE,128,13.0,17.0,86,0.00,,,0.00,0.00,VWS V14.00,2013-03-17 08:02:00,
2013-03-17 03:07:00,9.1,5.8,30.22,SE,130,13.0,20.0,86,0.00,,,0.00,0.00,VWS V14.00,2013-03-17 08:07:00,
2013-03-17 03:12:00,9.2,5.9,30.22,SE,127,15.0,21.0,86,0.00,,,0.00,0.00,VWS V14.00,2013-03-17 08:12:00,
2013-03-17 03:17:00,9.3,6.2,30.22,SE,127,14.0,21.0,87,0.00,,,0.00,0.00,VWS V14.00,2013-03-17 08:17:00,
2013-03-17 03:22:00,9.3,6.2,30.21,ESE,112,16.0,21.0,87,0.00,,,0.00,0.00,VWS V14.00,2013-03-17 08:22:00,
2013-03-17 03:27:00,9.4,6.3,30.21,SE,130,17.0,21.0,87,0.00,,,0.00,0.00,VWS V14.00,2013-03-17 08:27:00,
2013-03-17 03:33:00,9.4,6.3,30.21,SE,140,15.0,19.0,87,0.00,,,0.00,0.00,VWS V14.00,2013-03-17 08:33:00,
2013-03-17 03:38:00,9.5,6.4,30.21,SE,138,16.0,20.0,87,0.00,,,0.00,0.00,VWS V14.00,2013-03-17 08:38:00,
2013-03-17 03:43:00,9.6,6.5,30.21,SE,126,12.0,20.0,87,0.00,,OVC050,0.00,0.00,VWS V14.00,2013-03-17 08:43:00,
2013-03-17 03:48:00,9.7,6.6,30.21,SE,140,11.0,20.0,87,0.00,,OVC050,0.00,0.00,VWS V14.00,2013-03-17 08:48:00,
2013-03-17 03:53:00,9.7,6.6,30.20,SE,136,12.0,21.0,87,0.00,,OVC050,0.00,0.00,VWS V14.00,2013-03-17 08:53:00,
2013-03-17 03:58:00,9.8,6.7,30.20,SE,136,14.0,21.0,87,0.00,,OVC050,0.00,0.00,VWS V14.00,2013-03-17 08:58:00,
2013-03-17 04:03:00,9.9,6.8,30.19,SE,136,14.0,20.0,87,0.00,,OVC050,0.00,0.00,VWS V14.00,2013-03-17 09:03:00,
2013-03-17 04:08:00,10.0,6.9,30.18,SE,138,19.0,22.0,87,0.00,,OVC050,0.00,0.00,VWS V14.00,2013-03-17 09:08:00,
2013-03-17 04:13:00,10.0,6.9,30.18,SE,130,16.0,22.0,87,0.00,,OVC050,0.00,0.00,VWS V14.00,2013-03-17 09:13:00,
2013-03-17 04:18:00,10.1,6.8,30.18,SE,136,18.0,22.0,86,0.00,,OVC050,0.00,0.00,VWS V14.00,2013-03-17 09:18:00,
2013-03-17 04:24:00,10.1,6.8,30.17,SE,134,21.0,23.0,86,0.00,,OVC050,0.00,0.00,VWS V14.00,2013-03-17 09:24:00,
2013-03-17 04:29:00,10.0,6.7,30.17,SSE,147,16.0,19.0,86,0.00,,OVC050,0.00,0.00,VWS V14.00,2013-03-17 09:29:00,
2013-03-17 04:34:00,10.0,6.7,30.17,SE,140,18.0,24.0,86,0.00,,OVC050,0.00,0.00,VWS V14.00,2013-03-17 09:34:00,
2013-03-17 04:39:00,10.1,6.8,30.17,SE,136,10.0,24.0,86,0.00,,OVC050,0.00,0.00,VWS V14.00,2013-03-17 09:39:00,
2013-03-17 04:44:00,10.0,6.4,30.16,SE,140,12.0,24.0,85,0.00,,OVC048,0.00,0.00,VWS V14.00,2013-03-17 09:44:00,
2013-03-17 04:49:00,9.9,6.3,30.16,SSE,148,20.0,24.0,85,0.00,,OVC048,0.00,0.00,VWS V14.00,2013-03-17 09:49:00,
2013-03-17 04:54:00,10.0,6.7,30.16,SE,144,19.0,24.0,86,0.00,,OVC048,0.00,0.00,VWS V14.00,2013-03-17 09:54:00,
2013-03-17 04:59:00,10.0,6.7,30.15,SSE,157,19.0,22.0,86,0.00,,OVC048,0.00,0.00,VWS V14.00,2013-03-17 09:59:00,
2013-03-17 05:04:00,9.9,6.6,30.15,SSE,150,18.0,24.0,86,0.00,,OVC048,0.00,0.00,VWS V14.00,2013-03-17 10:04:00,
2013-03-17 05:10:00,9.9,6.6,30.15,SE,143,19.0,24.0,86,0.00,,OVC048,0.00,0.00,VWS V14.00,2013-03-17 10:10:00,
2013-03-17 05:15:00,9.9,6.3,30.14,SE,135,17.0,24.0,85,0.00,,OVC048,0.00,0.00,VWS V14.00,2013-03-17 10:15:00,
2013-03-17 05:20:00,9.9,6.3,30.14,SE,146,18.0,25.0,85,0.00,,OVC048,0.00,0.00,VWS V14.00,2013-03-17 10:20:00,
2013-03-17 05:25:00,9.9,6.3,30.13,SE,140,16.0,26.0,85,0.00,,OVC048,0.00,0.00,VWS V14.00,2013-03-17 10:25:00,
2013-03-17 05:30:00,10.0,6.4,30.14,SSE,166,20.0,22.0,85,0.00,,OVC048,0.00,0.00,VWS V14.00,2013-03-17 10:30:00,
2013-03-17 05:35:00,10.0,6.4,30.13,SE,130,10.0,22.0,85,0.00,,OVC048,0.00,0.00,VWS V14.00,2013-03-17 10:35:00,
2013-03-17 05:40:00,9.9,6.3,30.12,SE,142,20.0,25.0,85,0.00,,OVC048,0.00,0.00,VWS V14.00,2013-03-17 10:40:00,
2013-03-17 05:45:00,9.8,6.2,30.13,SE,134,13.0,25.0,85,0.00,,,0.00,0.00,VWS V14.00,2013-03-17 10:45:00,
2013-03-17 05:50:00,9.8,6.2,30.13,SE,134,15.0,25.0,85,0.00,,,0.00,0.00,VWS V14.00,2013-03-17 10:50:00,
2013-03-17 05:55:00,9.7,6.1,30.13,SE,141,17.0,25.0,85,0.00,,,0.00,0.00,VWS V14.00,2013-03-17 10:55:00,
2013-03-17 06:01:00,9.6,6.0,30.13,SE,144,17.0,20.0,85,0.00,,,0.00,0.00,VWS V14.00,2013-03-17 11:01:00,
2013-03-17 06:06:00,9.6,6.3,30.13,SE,146,10.0,24.0,86,0.00,,,0.00,0.00,VWS V14.00,2013-03-17 11:06:00,
2013-03-17 06:11:00,9.6,6.0,30.12,SE,138,17.0,24.0,85,0.00,,,0.00,0.00,VWS V14.00,2013-03-17 11:11:00,
2013-03-17 06:16:00,9.4,5.8,30.12,SE,130,16.0,25.0,85,0.00,,,0.00,0.00,VWS V14.00,2013-03-17 11:16:00,
2013-03-17 06:21:00,9.5,5.9,30.12,SE,136,17.0,25.0,85,0.00,,,0.00,0.00,VWS V14.00,2013-03-17 11:21:00,
2013-03-17 06:26:00,9.5,5.9,30.11,SE,143,20.0,26.0,85,0.00,,,0.00,0.00,VWS V14.00,2013-03-17 11:26:00,
2013-03-17 06:31:00,9.4,5.8,30.10,SSE,148,23.0,23.0,85,0.00,,,0.00,0.00,VWS V14.00,2013-03-17 11:31:00,
2013-03-17 06:36:00,9.4,5.8,30.11,SE,146,12.0,23.0,85,0.00,,,0.00,0.00,VWS V14.00,2013-03-17 11:36:00,
2013-03-17 06:41:00,9.6,6.0,30.10,SE,135,16.0,23.0,85,0.00,,OVC028,0.00,0.00,VWS V14.00,2013-03-17 11:41:00,
2013-03-17 06:46:00,9.6,6.0,30.09,SE,139,17.0,24.0,85,0.00,,OVC028,0.00,0.00,VWS V14.00,2013-03-17 11:46:00,
2013-03-17 06:51:00,9.5,5.9,30.09,SE,138,16.0,24.0,85,0.00,,OVC028,0.00,0.00,VWS V14.00,2013-03-17 11:51:00,
2013-03-17 06:56:00,9.4,5.8,30.09,SE,133,18.0,24.0,85,0.00,,OVC028,0.00,0.00,VWS V14.00,2013-03-17 11:56:00,
2013-03-17 07:02:00,9.3,6.0,30.08,SE,136,21.0,25.0,86,0.00,,OVC028,0.00,0.00,VWS V14.00,2013-03-17 12:02:00,
2013-03-17 07:07:00,9.3,6.0,30.08,SSE,149,17.0,25.0,86,0.00,,OVC028,0.00,0.00,VWS V14.00,2013-03-17 12:07:00,
2013-03-17 07:12:00,9.4,6.1,30.07,SE,130,20.0,25.0,86,0.00,,OVC028,0.00,0.00,VWS V14.00,2013-03-17 12:12:00,
2013-03-17 07:17:00,9.3,5.7,30.07,SE,140,23.0,26.0,85,0.00,,OVC028,0.00,0.00,VWS V14.00,2013-03-17 12:17:00,
2013-03-17 07:22:00,9.3,6.0,30.06,SE,140,20.0,26.0,86,0.00,,OVC028,0.00,0.00,VWS V14.00,2013-03-17 12:22:00,
2013-03-17 07:27:00,9.4,5.8,30.06,SE,136,19.0,26.0,85,0.00,,OVC028,0.00,0.00,VWS V14.00,2013-03-17 12:27:00,
2013-03-17 07:32:00,9.4,5.8,30.06,SE,138,16.0,22.0,85,0.00,,OVC028,0.00,0.00,VWS V14.00,2013-03-17 12:32:00,
2013-03-17 07:37:00,9.5,5.9,30.06,SE,134,10.0,26.0,85,0.00,,OVC028,0.00,0.00,VWS V14.00,2013-03-17 12:37:00,
2013-03-17 07:42:00,9.5,5.9,30.05,SE,140,17.0,26.0,85,0.00,,OVC028,0.00,0.00,VWS V14.00,2013-03-17 12:42:00,
2013-03-17 07:47:00,9.4,5.8,30.05,SE,130,23.0,26.0,85,0.00,,OVC028,0.00,0.00,VWS V14.00,2013-03-17 12:47:00,
2013-03-17 07:52:00,9.5,5.9,30.04,SE,137,21.0,26.0,85,0.00,,OVC022,0.00,0.00,VWS V14.00,2013-03-17 12:52:00,
2013-03-17 07:57:00,9.6,6.0,30.04,SE,139,14.0,26.0,85,0.00,,OVC022,0.00,5.00,VWS V14.00,2013-03-17 12:57:00,
2013-03-17 08:03:00,9.6,6.0,30.03,SE,140,21.0,26.0,85,0.00,,OVC022,0.00,7.00,VWS V14.00,2013-03-17 13:03:00,
2013-03-17 08:08:00,9.6,6.0,30.02,SE,146,22.0,26.0,85,0.00,,OVC022,0.00,11.00,VWS V14.00,2013-03-17 13:08:00,
2013-03-17 08:13:00,9.6,6.0,30.03,SE,139,25.0,26.0,85,0.00,,OVC022,0.00,11.00,VWS V14.00,2013-03-17 13:13:00,
2013-03-17 08:18:00,9.8,6.2,30.02,SSE,147,22.0,26.0,85,0.00,,OVC022,0.00,14.00,VWS V14.00,2013-03-17 13:18:00,
2013-03-17 08:23:00,9.9,6.6,30.03,SE,144,19.0,26.0,86,0.00,,OVC022,0.00,16.00,VWS V14.00,2013-03-17 13:23:00,
2013-03-17 08:28:00,10.0,6.7,30.02,SE,129,22.0,26.0,86,0.00,,OVC022,0.00,23.00,VWS V14.00,2013-03-17 13:28:00,
2013-03-17 08:33:00,10.1,6.8,30.02,SE,134,21.0,26.0,86,0.00,,OVC022,0.00,28.00,VWS V14.00,2013-03-17 13:33:00,
2013-03-17 08:38:00,10.3,6.7,30.02,SE,139,15.0,26.0,85,0.00,,OVC022,0.00,33.00,VWS V14.00,2013-03-17 13:38:00,
2013-03-17 08:44:00,10.5,6.9,30.01,SE,133,15.0,26.0,85,0.00,,OVC020,0.00,37.00,VWS V14.00,2013-03-17 13:44:00,
2013-03-17 08:49:00,10.7,7.1,30.01,SE,143,19.0,26.0,85,0.00,,OVC020,0.00,42.00,VWS V14.00,2013-03-17 13:49:00,
2013-03-17 08:54:00,10.7,7.1,30.01,SE,140,16.0,26.0,85,0.00,,OVC020,0.00,47.00,VWS V14.00,2013-03-17 13:54:00,
2013-03-17 08:59:00,10.8,7.2,30.00,SE,143,23.0,23.0,85,0.00,,OVC020,0.00,54.00,VWS V14.00,2013-03-17 13:59:00,
2013-03-17 09:04:00,10.7,7.1,30.00,SSE,158,19.0,26.0,85,0.00,,OVC020,0.00,63.00,VWS V14.00,2013-03-17 14:04:00,
2013-03-17 09:09:00,10.8,7.2,30.00,SE,134,18.0,26.0,85,0.00,,OVC020,0.00,72.00,VWS V14.00,2013-03-17 14:09:00,
2013-03-17 09:14:00,11.0,7.4,29.99,SSE,148,18.0,26.0,85,0.00,,OVC020,0.00,74.00,VWS V14.00,2013-03-17 14:14:00,
2013-03-17 09:19:00,11.0,7.4,29.98,SE,132,26.0,28.0,85,0.00,,OVC020,0.00,79.00,VWS V14.00,2013-03-17 14:19:00,
2013-03-17 09:24:00,11.1,7.5,29.98,SE,140,19.0,28.0,85,0.00,,OVC020,0.00,88.00,VWS V14.00,2013-03-17 14:24:00,
2013-03-17 09:29:00,11.1,7.5,29.97,SE,146,14.0,25.0,85,0.00,,OVC020,0.00,121.00,VWS V14.00,2013-03-17 14:29:00,
2013-03-17 09:34:00,11.1,7.5,29.97,SE,136,14.0,28.0,85,0.00,,OVC020,0.00,125.00,VWS V14.00,2013-03-17 14:34:00,
2013-03-17 09:40:00,11.4,7.8,29.97,SE,135,19.0,28.0,85,0.00,,OVC020,0.00,139.00,VWS V14.00,2013-03-17 14:40:00,
2013-03-17 09:45:00,11.4,7.8,29.96,SSE,155,19.0,32.0,85,0.00,,OVC023,0.00,137.00,VWS V14.00,2013-03-17 14:45:00,
2013-03-17 09:50:00,11.5,7.9,29.96,SSE,163,19.0,32.0,85,0.00,,OVC023,0.00,151.00,VWS V14.00,2013-03-17 14:50:00,
2013-03-17 09:55:00,11.7,7.8,29.96,SSE,163,20.0,32.0,84,0.00,,OVC023,0.00,165.00,VWS V14.00,2013-03-17 14:55:00,
2013-03-17 10:00:00,11.9,8.3,29.96,SE,137,17.0,25.0,85,0.00,,OVC023,0.00,153.00,VWS V14.00,2013-03-17 15:00:00,
2013-03-17 10:05:00,12.1,8.5,29.95,ESE,123,15.0,26.0,85,0.00,,OVC023,0.00,107.00,VWS V14.00,2013-03-17 15:05:00,
2013-03-17 10:10:00,11.9,8.3,29.95,SSE,157,17.0,26.0,85,0.00,,OVC023,0.00,105.00,VWS V14.00,2013-03-17 15:10:00,
2013-03-17 10:15:00,12.1,8.5,29.95,SE,134,17.0,26.0,85,0.00,,OVC023,0.00,146.00,VWS V14.00,2013-03-17 15:15:00,
2013-03-17 10:20:00,12.4,8.8,29.94,SE,146,19.0,26.0,85,0.00,,OVC023,0.00,153.00,VWS V14.00,2013-03-17 15:20:00,
2013-03-17 10:25:00,12.6,9.0,29.94,SE,136,17.0,26.0,85,0.00,,OVC023,0.00,167.00,VWS V14.00,2013-03-17 15:25:00,
2013-03-17 10:30:00,12.9,9.5,29.93,SE,130,15.0,23.0,86,0.00,,OVC023,0.00,146.00,VWS V14.00,2013-03-17 15:30:00,
2013-03-17 10:35:00,13.0,9.4,29.93,SE,136,16.0,23.0,85,0.00,,OVC023,0.00,144.00,VWS V14.00,2013-03-17 15:35:00,
2013-03-17 10:41:00,13.0,9.4,29.93,SE,138,18.0,25.0,85,0.00,,,0.00,109.00,VWS V14.00,2013-03-17 15:41:00,
2013-03-17 10:46:00,13.0,9.4,29.93,South,169,19.0,28.0,85,0.00,,,0.00,109.00,VWS V14.00,2013-03-17 15:46:00,
2013-03-17 10:51:00,13.1,9.4,29.92,SSE,155,21.0,28.0,85,0.00,,,0.00,156.00,VWS V14.00,2013-03-17 15:51:00,
2013-03-17 10:56:00,13.4,10.0,29.92,SSE,150,13.0,28.0,86,0.00,,,0.00,165.00,VWS V14.00,2013-03-17 15:56:00,
2013-03-17 11:02:00,13.5,9.8,29.91,SE,145,14.0,26.0,85,0.00,,,0.00,135.00,VWS V14.00,2013-03-17 16:02:00,
2013-03-17 11:07:00,13.6,9.9,29.91,SSE,159,20.0,26.0,85,0.00,,,0.00,169.00,VWS V14.00,2013-03-17 16:07:00,
2013-03-17 11:12:00,13.9,10.2,29.90,SSE,153,15.0,26.0,85,0.00,,,0.00,181.00,VWS V14.00,2013-03-17 16:12:00,
2013-03-17 11:17:00,14.0,10.3,29.90,South,172,14.0,26.0,85,0.00,,,0.00,186.00,VWS V14.00,2013-03-17 16:17:00,
2013-03-17 11:22:00,14.2,10.5,29.90,SE,145,16.0,26.0,85,0.00,,,0.00,179.00,VWS V14.00,2013-03-17 16:22:00,
2013-03-17 11:27:00,14.3,10.9,29.90,SSE,153,16.0,26.0,86,0.00,,,0.00,183.00,VWS V14.00,2013-03-17 16:27:00,
2013-03-17 11:33:00,14.6,11.2,29.89,SSE,148,15.0,24.0,86,0.00,,,0.00,199.00,VWS V14.00,2013-03-17 16:33:00,
2013-03-17 11:38:00,14.6,10.9,29.89,SSE,162,16.0,25.0,85,0.00,,,0.00,192.00,VWS V14.00,2013-03-17 16:38:00,
2013-03-17 11:43:00,14.8,11.1,29.89,SSE,157,21.0,30.0,85,0.00,,,0.00,197.00,VWS V14.00,2013-03-17 16:43:00,
2013-03-17 11:48:00,15.0,11.6,29.88,SSE,152,19.0,30.0,86,0.00,,,0.00,197.00,VWS V14.00,2013-03-17 16:48:00,
2013-03-17 11:53:00,15.3,11.9,29.87,SSE,153,24.0,30.0,86,0.00,,,0.00,221.00,VWS V14.00,2013-03-17 16:53:00,
2013-03-17 11:58:00,15.5,11.8,29.87,SSE,153,29.0,31.0,85,0.00,,,0.00,243.00,VWS V14.00,2013-03-17 16:58:00,
2013-03-17 12:03:00,15.7,12.0,29.86,SSE,150,22.0,29.0,85,0.00,,,0.00,279.00,VWS V14.00,2013-03-17 17:03:00,
2013-03-17 12:09:00,16.0,12.3,29.86,SE,127,14.0,29.0,85,0.00,,,0.00,255.00,VWS V14.00,2013-03-17 17:09:00,
2013-03-17 12:14:00,16.0,12.3,29.86,SSE,148,21.0,29.0,85,0.00,,,0.00,234.00,VWS V14.00,2013-03-17 17:14:00,
2013-03-17 12:19:00,16.1,12.4,29.85,SSE,160,19.0,29.0,85,0.00,,,0.00,188.00,VWS V14.00,2013-03-17 17:19:00,
2013-03-17 12:24:00,16.2,12.5,29.85,SE,142,17.0,29.0,85,0.00,,,0.00,211.00,VWS V14.00,2013-03-17 17:24:00,
2013-03-17 12:29:00,16.5,12.8,29.85,SSE,155,21.0,21.0,85,0.00,,,0.00,218.00,VWS V14.00,2013-03-17 17:29:00,
2013-03-17 12:34:00,16.5,12.8,29.85,SE,144,23.0,27.0,85,0.00,,,0.00,206.00,VWS V14.00,2013-03-17 17:34:00,
2013-03-17 12:39:00,16.6,12.9,29.85,SE,145,14.0,27.0,85,0.00,,,0.00,186.00,VWS V14.00,2013-03-17 17:39:00,
2013-03-17 12:44:00,16.8,13.1,29.84,SSE,154,17.0,27.0,85,0.00,,,0.00,220.00,VWS V14.00,2013-03-17 17:44:00,
2013-03-17 12:49:00,16.9,13.2,29.84,SSE,160,24.0,27.0,85,0.00,,,0.00,229.00,VWS V14.00,2013-03-17 17:49:00,
2013-03-17 12:54:00,17.0,13.3,29.84,SSE,150,14.0,27.0,85,0.00,,,0.00,213.00,VWS V14.00,2013-03-17 17:54:00,
2013-03-17 12:59:00,17.4,13.7,29.83,SSE,153,16.0,22.0,85,0.00,,,0.00,232.00,VWS V14.00,2013-03-17 17:59:00,
2013-03-17 13:04:00,17.5,13.8,29.83,SSE,162,14.0,27.0,85,0.00,,,0.00,257.00,VWS V14.00,2013-03-17 18:04:00,
2013-03-17 13:09:00,17.7,14.0,29.82,SSE,151,23.0,28.0,85,0.00,,,0.00,299.00,VWS V14.00,2013-03-17 18:09:00,
2013-03-17 13:15:00,17.9,14.2,29.81,SSE,149,24.0,29.0,85,0.00,,,0.00,334.00,VWS V14.00,2013-03-17 18:15:00,
2013-03-17 13:20:00,18.0,14.5,29.81,SSE,150,17.0,29.0,86,0.00,,,0.00,350.00,VWS V14.00,2013-03-17 18:20:00,
2013-03-17 13:25:00,18.4,14.6,29.80,SSE,159,26.0,29.0,85,0.00,,,0.00,322.00,VWS V14.00,2013-03-17 18:25:00,
2013-03-17 13:30:00,18.6,15.1,29.80,SE,140,20.0,32.0,86,0.00,,,0.00,274.00,VWS V14.00,2013-03-17 18:30:00,
2013-03-17 13:35:00,18.7,14.9,29.79,SSE,157,20.0,32.0,85,0.00,,,0.00,288.00,VWS V14.00,2013-03-17 18:35:00,
2013-03-17 13:41:00,18.9,15.1,29.78,SE,143,24.0,32.0,85,0.00,,,0.00,348.00,VWS V14.00,2013-03-17 18:41:00,
2013-03-17 13:47:00,19.1,15.3,29.78,SE,142,24.0,32.0,85,0.00,,,0.00,309.00,VWS V14.00,2013-03-17 18:47:00,
2013-03-17 13:52:00,19.5,15.7,29.77,SSE,151,20.0,32.0,85,0.00,,,0.00,301.00,VWS V14.00,2013-03-17 18:52:00,
2013-03-17 13:58:00,19.6,15.8,29.77,SE,140,21.0,33.0,85,0.00,,,0.00,241.00,VWS V14.00,2013-03-17 18:58:00,
2013-03-17 14:03:00,19.7,15.9,29.77,SE,143,23.0,35.0,85,0.00,,,0.00,264.00,VWS V14.00,2013-03-17 19:03:00,
2013-03-17 14:09:00,20.0,16.5,29.76,SSE,153,25.0,35.0,86,0.00,,,0.00,225.00,VWS V14.00,2013-03-17 19:09:00,
2013-03-17 14:14:00,20.0,16.2,29.75,SSE,148,18.0,35.0,85,0.00,,,0.00,229.00,VWS V14.00,2013-03-17 19:14:00,
2013-03-17 14:19:00,19.9,16.1,29.76,SE,132,16.0,35.0,85,0.00,,,0.00,195.00,VWS V14.00,2013-03-17 19:19:00,
2013-03-17 14:24:00,19.9,16.4,29.76,SE,132,15.0,35.0,86,0.00,,,0.00,156.00,VWS V14.00,2013-03-17 19:24:00,
2013-03-17 14:29:00,19.8,16.3,29.76,SE,146,22.0,27.0,86,0.00,,,0.00,139.00,VWS V14.00,2013-03-17 19:29:00,
2013-03-17 14:34:00,19.8,16.3,29.76,SE,135,19.0,28.0,86,0.00,,,0.00,125.00,VWS V14.00,2013-03-17 19:34:00,
2013-03-17 14:39:00,19.8,16.3,29.75,SE,140,20.0,28.0,86,0.00,,,0.00,134.00,VWS V14.00,2013-03-17 19:39:00,
2013-03-17 14:44:00,19.9,16.4,29.75,SE,143,14.0,28.0,86,0.00,,OVC014,0.00,118.00,VWS V14.00,2013-03-17 19:44:00,
2013-03-17 14:50:00,20.0,16.5,29.74,SSE,155,20.0,28.0,86,0.00,,OVC014,0.00,114.00,VWS V14.00,2013-03-17 19:50:00,
2013-03-17 14:55:00,20.2,16.7,29.74,SE,133,14.0,28.0,86,0.00,,OVC014,0.00,105.00,VWS V14.00,2013-03-17 19:55:00,
2013-03-17 15:00:00,20.1,16.6,29.74,SSE,147,16.0,21.0,86,0.00,,OVC014,0.00,86.00,VWS V14.00,2013-03-17 20:00:00,
2013-03-17 15:05:00,20.2,16.7,29.74,SSE,148,17.0,22.0,86,0.00,,OVC014,0.00,70.00,VWS V14.00,2013-03-17 20:05:00,
2013-03-17 15:10:00,20.4,16.9,29.73,SE,146,18.0,22.0,86,0.00,,OVC014,0.00,84.00,VWS V14.00,2013-03-17 20:10:00,
2013-03-17 15:16:00,20.7,17.2,29.73,SE,144,26.0,27.0,86,0.00,,OVC014,0.00,98.00,VWS V14.00,2013-03-17 20:16:00,
2013-03-17 15:21:00,20.8,17.3,29.72,SSE,154,10.0,27.0,86,0.00,,OVC014,0.00,86.00,VWS V14.00,2013-03-17 20:21:00,
2013-03-17 15:26:00,20.9,17.6,29.71,SE,137,24.0,30.0,87,0.00,,OVC014,0.00,95.00,VWS V14.00,2013-03-17 20:26:00,
2013-03-17 15:32:00,20.9,17.4,29.70,SE,142,20.0,29.0,86,0.00,,OVC014,0.00,104.00,VWS V14.00,2013-03-17 20:32:00,
2013-03-17 15:37:00,20.9,17.4,29.71,SE,146,24.0,29.0,86,0.00,,OVC014,0.00,84.00,VWS V14.00,2013-03-17 20:37:00,
2013-03-17 15:42:00,20.8,17.3,29.70,SE,144,22.0,29.0,86,0.00,,OVC014,0.00,91.00,VWS V14.00,2013-03-17 20:42:00,
2013-03-17 15:47:00,20.8,17.3,29.70,SE,142,19.0,29.0,86,0.00,,OVC014,0.00,91.00,VWS V14.00,2013-03-17 20:47:00,
2013-03-17 15:53:00,20.8,17.3,29.69,SE,128,18.0,29.0,86,0.00,,OVC014,0.00,79.00,VWS V14.00,2013-03-17 20:53:00,
2013-03-17 15:58:00,20.9,17.4,29.69,SE,146,22.0,29.0,86,0.00,,OVC014,0.00,67.00,VWS V14.00,2013-03-17 20:58:00,
2013-03-17 16:03:00,20.9,17.4,29.69,SSE,148,13.0,27.0,86,0.00,,OVC014,0.00,47.00,VWS V14.00,2013-03-17 21:03:00,
2013-03-17 16:08:00,21.0,17.8,29.69,SE,132,18.0,27.0,87,0.00,,OVC014,0.00,53.00,VWS V14.00,2013-03-17 21:08:00,
2013-03-17 16:13:00,20.9,17.9,29.68,SE,136,19.0,28.0,88,0.00,,OVC014,0.00,70.00,VWS V14.00,2013-03-17 21:13:00,
2013-03-17 16:18:00,20.7,18.2,29.68,SE,129,17.0,28.0,90,0.00,,OVC014,0.00,91.00,VWS V14.00,2013-03-17 21:18:00,
2013-03-17 16:23:00,20.8,18.6,29.68,SSE,149,19.0,28.0,91,0.00,,OVC014,0.00,58.00,VWS V14.00,2013-03-17 21:23:00,
2013-03-17 16:28:00,20.8,18.6,29.67,SE,130,18.0,28.0,91,0.00,,OVC014,0.00,70.00,VWS V14.00,2013-03-17 21:28:00,
2013-03-17 16:33:00,20.9,18.7,29.67,SE,124,17.0,23.0,91,0.00,,OVC014,0.00,79.00,VWS V14.00,2013-03-17 21:33:00,
2013-03-17 16:38:00,21.1,18.9,29.67,ESE,123,19.0,26.0,91,0.00,,OVC014,0.00,79.00,VWS V14.00,2013-03-17 21:38:00,
2013-03-17 16:43:00,21.2,18.7,29.66,SE,132,17.0,26.0,90,0.00,,,0.00,70.00,VWS V14.00,2013-03-17 21:43:00,
2013-03-17 16:48:00,21.3,18.8,29.66,SE,136,17.0,26.0,90,0.00,,,0.00,67.00,VWS V14.00,2013-03-17 21:48:00,
2013-03-17 16:54:00,21.4,18.9,29.66,SE,130,14.0,26.0,90,0.00,,,0.00,60.00,VWS V14.00,2013-03-17 21:54:00,
2013-03-17 16:59:00,21.6,19.1,29.66,SE,127,17.0,17.0,90,0.00,,,0.00,49.00,VWS V14.00,2013-03-17 21:59:00,
2013-03-17 17:04:00,21.8,19.1,29.66,SE,130,17.0,21.0,89,0.00,,,0.00,49.00,VWS V14.00,2013-03-17 22:04:00,
2013-03-17 17:09:00,22.0,19.3,29.66,SE,134,12.0,21.0,89,0.00,,,0.00,49.00,VWS V14.00,2013-03-17 22:09:00,
2013-03-17 17:14:00,22.0,19.3,29.66,SE,136,18.0,22.0,89,0.00,,,0.00,56.00,VWS V14.00,2013-03-17 22:14:00,
2013-03-17 17:19:00,22.2,19.5,29.66,SE,126,15.0,22.0,89,0.00,,,0.00,56.00,VWS V14.00,2013-03-17 22:19:00,
2013-03-17 17:24:00,22.3,19.3,29.65,SE,139,14.0,22.0,88,0.00,,,0.00,49.00,VWS V14.00,2013-03-17 22:24:00,
2013-03-17 17:29:00,22.3,19.6,29.65,SE,132,15.0,17.0,89,0.00,,,0.00,51.00,VWS V14.00,2013-03-17 22:29:00,
2013-03-17 17:34:00,22.5,19.8,29.65,SE,139,12.0,21.0,89,0.00,,,0.00,54.00,VWS V14.00,2013-03-17 22:34:00,
2013-03-17 17:39:00,22.7,20.0,29.65,SE,138,15.0,21.0,89,0.00,,,0.00,49.00,VWS V14.00,2013-03-17 22:39:00,
2013-03-17 17:44:00,22.8,20.0,29.65,SE,128,13.0,22.0,89,0.00,,OVC014,0.00,51.00,VWS V14.00,2013-03-17 22:44:00,
2013-03-17 17:49:00,22.8,20.3,29.64,SE,130,16.0,23.0,90,0.00,,OVC014,0.00,53.00,VWS V14.00,2013-03-17 22:49:00,
2013-03-17 17:54:00,22.8,20.3,29.65,ESE,122,22.0,23.0,90,0.00,,OVC014,0.00,54.00,VWS V14.00,2013-03-17 22:54:00,
2013-03-17 18:00:00,22.9,20.4,29.64,SE,130,21.0,23.0,90,0.00,,OVC014,0.00,60.00,VWS V14.00,2013-03-17 23:00:00,
2013-03-17 18:05:00,22.9,20.4,29.64,SE,130,14.0,23.0,90,0.00,,OVC014,0.00,70.00,VWS V14.00,2013-03-17 23:05:00,
2013-03-17 18:10:00,22.9,20.4,29.64,SE,127,21.0,23.0,90,0.00,,OVC014,0.00,83.00,VWS V14.00,2013-03-17 23:10:00,
2013-03-17 18:15:00,22.8,20.6,29.64,SE,136,15.0,23.0,91,0.00,,OVC014,0.00,88.00,VWS V14.00,2013-03-17 23:15:00,
2013-03-17 18:20:00,22.7,20.5,29.64,SE,136,19.0,23.0,91,0.00,,OVC014,0.00,95.00,VWS V14.00,2013-03-17 23:20:00,
2013-03-17 18:25:00,22.6,20.6,29.64,SE,134,15.0,23.0,92,0.00,,OVC014,0.00,86.00,VWS V14.00,2013-03-17 23:25:00,
2013-03-17 18:30:00,22.5,20.5,29.64,SE,126,17.0,19.0,92,0.00,,OVC014,0.00,63.00,VWS V14.00,2013-03-17 23:30:00,
2013-03-17 18:35:00,22.4,20.4,29.63,SE,126,18.0,23.0,92,0.00,,OVC014,0.00,62.00,VWS V14.00,2013-03-17 23:35:00,
2013-03-17 18:40:00,22.5,20.5,29.63,ESE,121,13.0,23.0,92,0.00,,OVC014,0.00,51.00,VWS V14.00,2013-03-17 23:40:00,
2013-03-17 18:45:00,22.4,20.4,29.63,SE,128,15.0,23.0,92,0.00,,,0.00,26.00,VWS V14.00,2013-03-17 23:45:00,
2013-03-17 18:50:00,22.3,20.3,29.64,SE,132,19.0,23.0,92,0.00,,,0.00,26.00,VWS V14.00,2013-03-17 23:50:00,
2013-03-17 18:55:00,22.3,20.3,29.64,SE,135,15.0,23.0,92,0.00,,,0.00,39.00,VWS V14.00,2013-03-17 23:55:00,
2013-03-17 19:00:00,22.4,20.4,29.64,SE,132,16.0,21.0,92,0.00,,,0.00,37.00,VWS V14.00,2013-03-18 00:00:00,
2013-03-17 19:05:00,22.4,20.4,29.63,SE,134,14.0,22.0,92,0.00,,,0.00,32.00,VWS V14.00,2013-03-18 00:05:00,
2013-03-17 19:11:00,22.5,20.5,29.63,SE,128,12.0,22.0,92,0.00,,,0.00,14.00,VWS V14.00,2013-03-18 00:11:00,
2013-03-17 19:16:00,22.5,20.5,29.63,SE,129,15.0,22.0,92,0.00,,,0.00,11.00,VWS V14.00,2013-03-18 00:16:00,
2013-03-17 19:21:00,22.5,20.5,29.63,SE,125,17.0,22.0,92,0.00,,,0.00,7.00,VWS V14.00,2013-03-18 00:21:00,
2013-03-17 19:26:00,22.6,20.6,29.63,SE,129,16.0,22.0,92,0.00,,,0.00,7.00,VWS V14.00,2013-03-18 00:26:00,
2013-03-17 19:31:00,22.6,20.9,29.63,ESE,116,10.0,16.0,93,0.00,,,0.00,9.00,VWS V14.00,2013-03-18 00:31:00,
2013-03-17 19:37:00,22.6,20.9,29.62,SE,132,13.0,16.0,93,0.00,,,0.00,5.00,VWS V14.00,2013-03-18 00:37:00,
2013-03-17 19:42:00,22.6,20.9,29.62,ESE,119,13.0,17.0,93,0.00,,,0.00,5.00,VWS V14.00,2013-03-18 00:42:00,
2013-03-17 19:47:00,22.6,20.9,29.62,ESE,115,12.0,18.0,93,0.00,,,0.00,0.00,VWS V14.00,2013-03-18 00:47:00,
2013-03-17 19:52:00,22.6,20.9,29.62,ESE,121,13.0,18.0,93,0.00,,,0.00,0.00,VWS V14.00,2013-03-18 00:52:00,
2013-03-17 19:57:00,22.6,20.9,29.63,ESE,120,10.0,18.0,93,0.00,,,0.00,0.00,VWS V14.00,2013-03-18 00:57:00,
2013-03-17 20:02:00,22.6,20.9,29.63,ESE,114,12.0,16.0,93,0.00,,,0.00,0.00,VWS V14.00,2013-03-18 01:02:00,
2013-03-17 20:07:00,22.6,20.9,29.63,SE,125,8.0,16.0,93,0.00,,,0.00,0.00,VWS V14.00,2013-03-18 01:07:00,
2013-03-17 20:12:00,22.5,20.8,29.63,ESE,120,14.0,16.0,93,0.00,,,0.00,0.00,VWS V14.00,2013-03-18 01:12:00,
2013-03-17 20:18:00,22.5,20.8,29.63,ESE,119,12.0,16.0,93,0.00,,,0.00,0.00,VWS V14.00,2013-03-18 01:18:00,
2013-03-17 20:23:00,22.6,20.9,29.63,ESE,123,15.0,16.0,93,0.00,,,0.00,0.00,VWS V14.00,2013-03-18 01:23:00,
2013-03-17 20:28:00,22.6,20.9,29.63,ESE,123,16.0,16.0,93,0.00,,,0.00,0.00,VWS V14.00,2013-03-18 01:28:00,
2013-03-17 20:33:00,22.7,21.0,29.63,ESE,123,11.0,15.0,93,0.00,,,0.00,0.00,VWS V14.00,2013-03-18 01:33:00,
2013-03-17 20:38:00,22.8,21.1,29.63,ESE,123,11.0,15.0,93,0.00,,,0.00,0.00,VWS V14.00,2013-03-18 01:38:00,
2013-03-17 20:43:00,22.9,21.2,29.63,ESE,119,11.0,15.0,93,0.00,,,0.00,0.00,VWS V14.00,2013-03-18 01:43:00,
2013-03-17 20:48:00,22.9,21.2,29.63,ESE,113,8.0,15.0,93,0.00,,,0.00,0.00,VWS V14.00,2013-03-18 01:48:00,
2013-03-17 20:53:00,23.0,21.3,29.63,SE,126,8.0,15.0,93,0.00,,,0.00,0.00,VWS V14.00,2013-03-18 01:53:00,
2013-03-17 20:58:00,23.1,21.4,29.64,ESE,118,7.0,15.0,93,0.00,,,0.00,0.00,VWS V14.00,2013-03-18 01:58:00,
2013-03-17 21:03:00,23.1,21.4,29.64,ESE,121,9.0,10.0,93,0.00,,,0.00,0.00,VWS V14.00,2013-03-18 02:03:00,
2013-03-17 21:08:00,23.1,21.4,29.64,ESE,119,4.0,10.0,93,0.00,,,0.00,0.00,VWS V14.00,2013-03-18 02:08:00,
2013-03-17 21:13:00,23.2,21.7,29.64,ESE,119,7.0,10.0,94,0.00,,,0.00,0.00,VWS V14.00,2013-03-18 02:13:00,
2013-03-17 21:18:00,23.2,21.7,29.63,ESE,119,8.0,10.0,94,0.00,,,0.00,0.00,VWS V14.00,2013-03-18 02:18:00,
2013-03-17 21:23:00,23.3,21.6,29.63,ESE,118,4.0,10.0,93,0.00,,,0.00,0.00,VWS V14.00,2013-03-18 02:23:00,
2013-03-17 21:28:00,23.3,21.8,29.63,ESE,117,7.0,10.0,94,0.00,,,0.00,0.00,VWS V14.00,2013-03-18 02:28:00,
2013-03-17 21:34:00,23.3,21.6,29.63,ESE,113,5.0,8.0,93,0.00,,,0.00,0.00,VWS V14.00,2013-03-18 02:34:00,
2013-03-17 21:39:00,23.3,21.6,29.63,ESE,113,3.0,8.0,93,0.00,,,0.00,0.00,VWS V14.00,2013-03-18 02:39:00,
2013-03-17 21:44:00,23.3,21.8,29.63,ESE,114,2.0,8.0,94,0.00,,,0.00,0.00,VWS V14.00,2013-03-18 02:44:00,
2013-03-17 21:49:00,23.4,21.9,29.64,ESE,113,1.0,8.0,94,0.00,,,0.00,0.00,VWS V14.00,2013-03-18 02:49:00,
2013-03-17 21:54:00,23.4,21.9,29.64,ESE,113,2.0,8.0,94,0.00,,,0.00,0.00,VWS V14.00,2013-03-18 02:54:00,
2013-03-17 21:59:00,23.4,21.9,29.64,ESE,113,0.0,0.0,94,0.00,,,0.00,0.00,VWS V14.00,2013-03-18 02:59:00,
2013-03-17 22:04:00,23.4,21.9,29.65,ESE,103,1.0,5.0,94,0.00,,,0.00,0.00,VWS V14.00,2013-03-18 03:04:00,
2013-03-17 22:13:00,23.4,21.9,29.64,ESE,103,3.0,5.0,94,0.00,,,0.00,0.00,VWS V14.00,2013-03-18 03:13:00,
2013-03-17 22:18:00,23.4,21.9,29.65,NE,55,3.0,6.0,94,0.00,,,0.00,0.00,VWS V14.00,2013-03-18 03:18:00,
2013-03-17 22:23:00,23.3,21.8,29.64,NNE,30,5.0,6.0,94,0.00,,,0.00,0.00,VWS V14.00,2013-03-18 03:23:00,
2013-03-17 22:28:00,23.3,21.8,29.64,WNW,300,8.0,9.0,94,0.00,,,0.00,0.00,VWS V14.00,2013-03-18 03:28:00,
2013-03-17 22:33:00,23.6,22.1,29.64,WNW,295,7.0,9.0,94,0.00,,,0.00,0.00,VWS V14.00,2013-03-18 03:33:00,
2013-03-17 22:38:00,23.6,22.1,29.65,West,280,13.0,13.0,94,0.00,,,0.00,0.00,VWS V14.00,2013-03-18 03:38:00,
2013-03-17 22:43:00,23.7,22.2,29.65,WNW,282,14.0,15.0,94,0.00,,,0.00,0.00,VWS V14.00,2013-03-18 03:43:00,
2013-03-17 22:48:00,23.7,22.2,29.65,WNW,284,14.0,17.0,94,0.00,,,0.00,0.00,VWS V14.00,2013-03-18 03:48:00,
2013-03-17 22:53:00,23.7,22.2,29.65,West,278,15.0,21.0,94,0.00,,,0.00,0.00,VWS V14.00,2013-03-18 03:53:00,
2013-03-17 22:58:00,23.9,22.2,29.65,WNW,284,19.0,24.0,93,0.00,,,0.00,0.00,VWS V14.00,2013-03-18 03:58:00,
2013-03-17 23:00:00,23.9,22.2,29.65,WNW,296,17.0,20.0,93,0.00,,,0.00,0.00,VWS V14.00,2013-03-18 04:00:00,
2013-03-17 23:03:00,23.8,21.8,29.65,WNW,287,18.0,20.0,92,0.00,,,0.00,0.00,VWS V14.00,2013-03-18 04:03:00,
2013-03-17 23:06:00,23.7,21.7,29.65,WNW,301,17.0,28.0,92,0.00,,,0.00,0.00,VWS V14.00,2013-03-18 04:06:00,
2013-03-17 23:08:00,23.6,21.6,29.65,WNW,294,23.0,28.0,92,0.00,,,0.00,0.00,VWS V14.00,2013-03-18 04:08:00,
2013-03-17 23:13:00,23.5,21.3,29.66,WNW,288,20.0,28.0,91,0.00,,,0.00,0.00,VWS V14.00,2013-03-18 04:13:00,
2013-03-17 23:19:00,23.4,21.2,29.66,WNW,295,16.0,28.0,91,0.00,,,0.00,0.00,VWS V14.00,2013-03-18 04:19:00,
2013-03-17 23:24:00,23.3,21.1,29.66,WNW,291,16.0,28.0,91,0.00,,,0.00,0.00,VWS V14.00,2013-03-18 04:24:00,
2013-03-17 23:29:00,23.3,21.1,29.67,NW,306,20.0,21.0,91,0.00,,,0.00,0.00,VWS V14.00,2013-03-18 04:29:00,
2013-03-17 23:34:00,23.3,20.8,29.67,WNW,292,26.0,26.0,90,0.00,,,0.00,0.00,VWS V14.00,2013-03-18 04:34:00,
2013-03-17 23:39:00,23.1,20.4,29.67,WNW,297,24.0,29.0,89,0.00,,,0.00,0.00,VWS V14.00,2013-03-18 04:39:00,
2013-03-17 23:44:00,21.1,17.8,29.67,NW,306,26.0,34.0,87,0.00,,OVC055,0.00,0.00,VWS V14.00,2013-03-18 04:44:00,
2013-03-17 23:49:00,20.2,17.2,29.68,WNW,298,25.0,34.0,88,0.00,,OVC055,0.00,0.00,VWS V14.00,2013-03-18 04:49:00,
2013-03-17 23:54:00,19.6,16.4,29.68,WNW,288,25.0,35.0,87,0.00,,OVC055,0.00,0.00,VWS V14.00,2013-03-18 04:54:00,
2013-03-17 23:59:00,18.8,15.6,29.68,WNW,290,25.0,35.0,87,0.00,,OVC055,0.00,0.00,VWS V14.00,2013-03-18 04:59:00,